Ruso, North Dakota
Current Conditions -  °F | °C
As of 8:04 PM on Monday 24 Nov 2014 (Local Time) from KMOT Reporting Station
Overcast Overcast  
Wind Chill: -9°   Ceiling: 3000
Heat Index: -4°   Visibility: 10mi
Dew Point: -8°   Wind: 9mph
Humidity: 72%   Direction: 240°WSW
Pressure: 29.92"   Gusts: NA
Location:  47.84°N, 100.93°W
Report Text: KMOT 250204Z 24008KT 10SM OVC030 M04/M08 A2992 RMK AO2 T10391083
Loading
Personal Weather Stations






























Interactive Weather Map New forecast layout! Learn more

10-Day Weather Forecast

Advertisements
Track Severe Weather on mobile